sensor_id;sensor_type;location;lat;lon;timestamp;P1;durP1;ratioP1;P2;durP2;ratioP2
53281;SDS011;39167;52.794;6.892;2023-03-11T00:00:47;5.40;;;1.45;;
53281;SDS011;39167;52.794;6.892;2023-03-11T00:03:15;5.45;;;1.38;;
53281;SDS011;39167;52.794;6.892;2023-03-11T00:05:43;7.18;;;1.40;;
53281;SDS011;39167;52.794;6.892;2023-03-11T00:08:11;3.50;;;1.40;;
53281;SDS011;39167;52.794;6.892;2023-03-11T00:10:40;5.35;;;1.55;;
53281;SDS011;39167;52.794;6.892;2023-03-11T00:13:08;5.45;;;1.55;;
53281;SDS011;39167;52.794;6.892;2023-03-11T00:15:35;5.30;;;2.55;;
53281;SDS011;39167;52.794;6.892;2023-03-11T00:18:02;6.20;;;2.15;;
53281;SDS011;39167;52.794;6.892;2023-03-11T00:20:29;5.75;;;1.73;;
53281;SDS011;39167;52.794;6.892;2023-03-11T00:23:00;6.57;;;1.50;;
53281;SDS011;39167;52.794;6.892;2023-03-11T00:25:28;5.25;;;1.63;;
53281;SDS011;39167;52.794;6.892;2023-03-11T00:27:55;6.18;;;1.75;;
53281;SDS011;39167;52.794;6.892;2023-03-11T00:30:21;5.15;;;1.60;;
53281;SDS011;39167;52.794;6.892;2023-03-11T00:32:52;5.53;;;2.00;;
53281;SDS011;39167;52.794;6.892;2023-03-11T00:37:47;7.50;;;1.98;;
53281;SDS011;39167;52.794;6.892;2023-03-11T00:40:17;4.68;;;2.00;;
53281;SDS011;39167;52.794;6.892;2023-03-11T00:42:44;5.30;;;1.83;;
53281;SDS011;39167;52.794;6.892;2023-03-11T00:45:10;8.73;;;1.60;;
53281;SDS011;39167;52.794;6.892;2023-03-11T00:47:37;5.70;;;1.88;;
53281;SDS011;39167;52.794;6.892;2023-03-11T00:50:03;9.27;;;2.15;;
53281;SDS011;39167;52.794;6.892;2023-03-11T00:52:30;6.97;;;2.38;;
53281;SDS011;39167;52.794;6.892;2023-03-11T00:54:57;6.90;;;1.65;;
53281;SDS011;39167;52.794;6.892;2023-03-11T00:57:23;5.97;;;1.70;;
53281;SDS011;39167;52.794;6.892;2023-03-11T00:59:49;7.68;;;1.65;;
53281;SDS011;39167;52.794;6.892;2023-03-11T01:02:14;13.02;;;1.85;;
53281;SDS011;39167;52.794;6.892;2023-03-11T01:04:40;5.18;;;1.33;;
53281;SDS011;39167;52.794;6.892;2023-03-11T01:07:06;6.07;;;1.50;;
53281;SDS011;39167;52.794;6.892;2023-03-11T01:09:31;8.15;;;2.05;;
53281;SDS011;39167;52.794;6.892;2023-03-11T01:11:57;5.38;;;1.85;;
53281;SDS011;39167;52.794;6.892;2023-03-11T01:14:23;5.70;;;1.40;;
53281;SDS011;39167;52.794;6.892;2023-03-11T01:16:49;7.00;;;2.17;;
53281;SDS011;39167;52.794;6.892;2023-03-11T01:19:15;7.55;;;1.83;;
53281;SDS011;39167;52.794;6.892;2023-03-11T01:21:40;8.35;;;1.52;;
53281;SDS011;39167;52.794;6.892;2023-03-11T01:24:07;9.25;;;2.13;;
53281;SDS011;39167;52.794;6.892;2023-03-11T01:26:33;5.95;;;1.48;;
53281;SDS011;39167;52.794;6.892;2023-03-11T01:28:59;8.88;;;2.65;;
53281;SDS011;39167;52.794;6.892;2023-03-11T01:31:24;14.52;;;2.08;;
53281;SDS011;39167;52.794;6.892;2023-03-11T01:33:50;7.25;;;1.80;;
53281;SDS011;39167;52.794;6.892;2023-03-11T01:36:16;8.18;;;1.83;;
53281;SDS011;39167;52.794;6.892;2023-03-11T01:38:41;10.30;;;1.80;;
53281;SDS011;39167;52.794;6.892;2023-03-11T01:41:07;7.80;;;1.50;;
53281;SDS011;39167;52.794;6.892;2023-03-11T01:46:18;8.68;;;1.73;;
53281;SDS011;39167;52.794;6.892;2023-03-11T01:48:52;6.38;;;1.75;;
53281;SDS011;39167;52.794;6.892;2023-03-11T01:51:43;6.60;;;1.30;;
53281;SDS011;39167;52.794;6.892;2023-03-11T01:54:15;6.95;;;1.48;;
53281;SDS011;39167;52.794;6.892;2023-03-11T01:56:58;10.60;;;1.55;;
53281;SDS011;39167;52.794;6.892;2023-03-11T01:59:29;6.32;;;1.55;;
53281;SDS011;39167;52.794;6.892;2023-03-11T02:04:46;5.78;;;1.30;;
53281;SDS011;39167;52.794;6.892;2023-03-11T02:07:13;7.80;;;1.50;;
53281;SDS011;39167;52.794;6.892;2023-03-11T02:09:40;6.70;;;1.55;;
53281;SDS011;39167;52.794;6.892;2023-03-11T02:12:06;8.18;;;1.63;;
53281;SDS011;39167;52.794;6.892;2023-03-11T02:14:34;9.60;;;1.45;;
53281;SDS011;39167;52.794;6.892;2023-03-11T02:17:03;8.30;;;1.58;;
53281;SDS011;39167;52.794;6.892;2023-03-11T02:19:33;5.78;;;1.58;;
53281;SDS011;39167;52.794;6.892;2023-03-11T02:22:09;9.10;;;1.83;;
53281;SDS011;39167;52.794;6.892;2023-03-11T02:24:38;7.55;;;1.20;;
53281;SDS011;39167;52.794;6.892;2023-03-11T02:27:12;7.47;;;1.48;;
53281;SDS011;39167;52.794;6.892;2023-03-11T02:29:40;7.68;;;1.77;;
53281;SDS011;39167;52.794;6.892;2023-03-11T02:32:08;6.22;;;1.40;;
53281;SDS011;39167;52.794;6.892;2023-03-11T02:34:36;7.72;;;1.40;;
53281;SDS011;39167;52.794;6.892;2023-03-11T02:37:07;10.95;;;1.67;;
53281;SDS011;39167;52.794;6.892;2023-03-11T02:39:39;9.25;;;1.63;;
53281;SDS011;39167;52.794;6.892;2023-03-11T02:42:09;8.52;;;1.42;;
53281;SDS011;39167;52.794;6.892;2023-03-11T02:44:38;3.60;;;1.60;;
53281;SDS011;39167;52.794;6.892;2023-03-11T02:47:08;7.40;;;1.38;;
53281;SDS011;39167;52.794;6.892;2023-03-11T02:49:34;7.18;;;1.38;;
53281;SDS011;39167;52.794;6.892;2023-03-11T02:52:00;4.68;;;1.58;;
53281;SDS011;39167;52.794;6.892;2023-03-11T02:54:26;10.18;;;1.70;;
53281;SDS011;39167;52.794;6.892;2023-03-11T02:56:52;8.10;;;1.60;;
53281;SDS011;39167;52.794;6.892;2023-03-11T02:59:18;9.57;;;1.55;;
53281;SDS011;39167;52.794;6.892;2023-03-11T03:01:44;7.53;;;1.33;;
53281;SDS011;39167;52.794;6.892;2023-03-11T03:04:09;7.70;;;1.30;;
53281;SDS011;39167;52.794;6.892;2023-03-11T03:06:35;8.20;;;1.35;;
53281;SDS011;39167;52.794;6.892;2023-03-11T03:09:01;7.30;;;1.33;;
53281;SDS011;39167;52.794;6.892;2023-03-11T03:11:27;3.92;;;1.20;;
53281;SDS011;39167;52.794;6.892;2023-03-11T03:13:53;5.03;;;0.93;;
53281;SDS011;39167;52.794;6.892;2023-03-11T03:16:19;11.18;;;1.52;;
53281;SDS011;39167;52.794;6.892;2023-03-11T03:18:45;6.57;;;1.48;;
53281;SDS011;39167;52.794;6.892;2023-03-11T03:21:11;5.10;;;1.90;;
53281;SDS011;39167;52.794;6.892;2023-03-11T03:23:37;5.85;;;1.25;;
53281;SDS011;39167;52.794;6.892;2023-03-11T03:26:05;5.50;;;1.58;;
53281;SDS011;39167;52.794;6.892;2023-03-11T03:28:31;8.70;;;2.00;;
53281;SDS011;39167;52.794;6.892;2023-03-11T03:31:04;4.57;;;1.30;;
53281;SDS011;39167;52.794;6.892;2023-03-11T03:33:31;5.15;;;0.98;;
53281;SDS011;39167;52.794;6.892;2023-03-11T03:35:57;5.72;;;1.40;;
53281;SDS011;39167;52.794;6.892;2023-03-11T03:38:22;7.28;;;1.35;;
53281;SDS011;39167;52.794;6.892;2023-03-11T03:40:48;7.28;;;1.38;;
53281;SDS011;39167;52.794;6.892;2023-03-11T03:43:14;3.92;;;1.10;;
53281;SDS011;39167;52.794;6.892;2023-03-11T03:45:39;7.93;;;1.20;;
53281;SDS011;39167;52.794;6.892;2023-03-11T03:48:05;5.82;;;1.25;;
53281;SDS011;39167;52.794;6.892;2023-03-11T03:50:31;3.40;;;1.20;;
53281;SDS011;39167;52.794;6.892;2023-03-11T03:52:57;6.13;;;1.10;;
53281;SDS011;39167;52.794;6.892;2023-03-11T03:55:23;7.32;;;1.23;;
53281;SDS011;39167;52.794;6.892;2023-03-11T03:57:49;3.42;;;1.23;;
53281;SDS011;39167;52.794;6.892;2023-03-11T04:00:15;2.55;;;0.90;;
53281;SDS011;39167;52.794;6.892;2023-03-11T04:02:41;4.65;;;1.42;;
53281;SDS011;39167;52.794;6.892;2023-03-11T04:05:07;2.88;;;1.10;;
53281;SDS011;39167;52.794;6.892;2023-03-11T04:07:34;4.65;;;1.27;;
53281;SDS011;39167;52.794;6.892;2023-03-11T04:10:00;3.83;;;1.15;;
53281;SDS011;39167;52.794;6.892;2023-03-11T04:12:26;7.90;;;1.30;;
53281;SDS011;39167;52.794;6.892;2023-03-11T04:14:51;4.57;;;1.38;;
53281;SDS011;39167;52.794;6.892;2023-03-11T04:17:17;9.35;;;1.88;;
53281;SDS011;39167;52.794;6.892;2023-03-11T04:19:43;4.70;;;1.20;;
53281;SDS011;39167;52.794;6.892;2023-03-11T04:22:09;6.75;;;1.50;;
53281;SDS011;39167;52.794;6.892;2023-03-11T04:24:35;7.93;;;1.30;;
53281;SDS011;39167;52.794;6.892;2023-03-11T04:27:01;3.25;;;1.10;;
53281;SDS011;39167;52.794;6.892;2023-03-11T04:29:27;3.85;;;1.05;;
53281;SDS011;39167;52.794;6.892;2023-03-11T04:31:52;5.57;;;1.33;;
53281;SDS011;39167;52.794;6.892;2023-03-11T04:34:18;4.53;;;1.42;;
53281;SDS011;39167;52.794;6.892;2023-03-11T04:36:44;3.15;;;1.23;;
53281;SDS011;39167;52.794;6.892;2023-03-11T04:39:10;6.07;;;1.83;;
53281;SDS011;39167;52.794;6.892;2023-03-11T04:41:36;5.32;;;1.77;;
53281;SDS011;39167;52.794;6.892;2023-03-11T04:44:01;4.07;;;1.38;;
53281;SDS011;39167;52.794;6.892;2023-03-11T04:46:27;5.45;;;2.03;;
53281;SDS011;39167;52.794;6.892;2023-03-11T04:48:53;4.45;;;1.30;;
53281;SDS011;39167;52.794;6.892;2023-03-11T04:51:18;6.25;;;1.25;;
53281;SDS011;39167;52.794;6.892;2023-03-11T04:53:44;3.40;;;1.17;;
53281;SDS011;39167;52.794;6.892;2023-03-11T04:56:10;8.57;;;1.75;;
53281;SDS011;39167;52.794;6.892;2023-03-11T04:58:35;6.88;;;0.85;;
53281;SDS011;39167;52.794;6.892;2023-03-11T05:01:01;6.90;;;1.30;;
53281;SDS011;39167;52.794;6.892;2023-03-11T05:03:27;4.22;;;1.70;;
53281;SDS011;39167;52.794;6.892;2023-03-11T05:05:53;4.95;;;1.40;;
53281;SDS011;39167;52.794;6.892;2023-03-11T05:08:21;4.32;;;1.48;;
53281;SDS011;39167;52.794;6.892;2023-03-11T05:10:48;6.00;;;1.10;;
53281;SDS011;39167;52.794;6.892;2023-03-11T05:13:15;6.35;;;1.30;;
53281;SDS011;39167;52.794;6.892;2023-03-11T05:15:40;4.00;;;1.23;;
53281;SDS011;39167;52.794;6.892;2023-03-11T05:18:06;10.90;;;1.77;;
53281;SDS011;39167;52.794;6.892;2023-03-11T05:20:32;2.53;;;1.40;;
53281;SDS011;39167;52.794;6.892;2023-03-11T05:22:58;7.05;;;1.38;;
53281;SDS011;39167;52.794;6.892;2023-03-11T05:25:23;3.13;;;1.38;;
53281;SDS011;39167;52.794;6.892;2023-03-11T05:27:49;5.40;;;1.40;;
53281;SDS011;39167;52.794;6.892;2023-03-11T05:30:15;4.97;;;2.28;;
53281;SDS011;39167;52.794;6.892;2023-03-11T05:32:41;5.93;;;1.60;;
53281;SDS011;39167;52.794;6.892;2023-03-11T05:35:07;4.35;;;1.40;;
53281;SDS011;39167;52.794;6.892;2023-03-11T05:37:32;5.32;;;2.00;;
53281;SDS011;39167;52.794;6.892;2023-03-11T05:39:59;5.55;;;1.58;;
53281;SDS011;39167;52.794;6.892;2023-03-11T05:42:25;4.10;;;1.73;;
53281;SDS011;39167;52.794;6.892;2023-03-11T05:44:50;7.30;;;2.28;;
53281;SDS011;39167;52.794;6.892;2023-03-11T05:47:16;5.93;;;1.80;;
53281;SDS011;39167;52.794;6.892;2023-03-11T05:49:42;4.38;;;1.38;;
53281;SDS011;39167;52.794;6.892;2023-03-11T05:52:08;5.65;;;1.40;;
53281;SDS011;39167;52.794;6.892;2023-03-11T05:54:33;3.20;;;1.00;;
53281;SDS011;39167;52.794;6.892;2023-03-11T05:56:59;3.03;;;0.98;;
53281;SDS011;39167;52.794;6.892;2023-03-11T05:59:25;5.03;;;1.40;;
53281;SDS011;39167;52.794;6.892;2023-03-11T06:01:51;6.63;;;1.02;;
53281;SDS011;39167;52.794;6.892;2023-03-11T06:04:16;9.98;;;1.80;;
53281;SDS011;39167;52.794;6.892;2023-03-11T06:06:42;4.55;;;1.45;;
53281;SDS011;39167;52.794;6.892;2023-03-11T06:09:11;4.18;;;1.70;;
53281;SDS011;39167;52.794;6.892;2023-03-11T06:11:38;6.30;;;1.58;;
53281;SDS011;39167;52.794;6.892;2023-03-11T06:14:04;5.68;;;1.80;;
53281;SDS011;39167;52.794;6.892;2023-03-11T06:16:29;3.20;;;1.42;;
53281;SDS011;39167;52.794;6.892;2023-03-11T06:18:55;3.70;;;1.33;;
53281;SDS011;39167;52.794;6.892;2023-03-11T06:21:22;3.03;;;1.20;;
53281;SDS011;39167;52.794;6.892;2023-03-11T06:23:50;3.47;;;1.20;;
53281;SDS011;39167;52.794;6.892;2023-03-11T06:26:17;3.85;;;1.20;;
53281;SDS011;39167;52.794;6.892;2023-03-11T06:28:45;2.72;;;1.13;;
53281;SDS011;39167;52.794;6.892;2023-03-11T06:31:15;7.97;;;1.90;;
53281;SDS011;39167;52.794;6.892;2023-03-11T06:33:46;6.32;;;1.85;;
53281;SDS011;39167;52.794;6.892;2023-03-11T06:36:13;3.28;;;0.98;;
53281;SDS011;39167;52.794;6.892;2023-03-11T06:38:40;4.68;;;1.48;;
53281;SDS011;39167;52.794;6.892;2023-03-11T06:41:07;2.88;;;1.20;;
53281;SDS011;39167;52.794;6.892;2023-03-11T06:43:33;4.80;;;1.52;;
53281;SDS011;39167;52.794;6.892;2023-03-11T06:45:59;3.13;;;1.30;;
53281;SDS011;39167;52.794;6.892;2023-03-11T06:48:26;5.80;;;1.25;;
53281;SDS011;39167;52.794;6.892;2023-03-11T06:50:53;5.88;;;1.13;;
53281;SDS011;39167;52.794;6.892;2023-03-11T06:53:20;7.97;;;1.58;;
53281;SDS011;39167;52.794;6.892;2023-03-11T06:55:55;3.60;;;1.70;;
53281;SDS011;39167;52.794;6.892;2023-03-11T06:58:25;5.00;;;1.67;;
53281;SDS011;39167;52.794;6.892;2023-03-11T07:00:51;4.65;;;1.15;;
53281;SDS011;39167;52.794;6.892;2023-03-11T07:03:17;4.57;;;1.80;;
53281;SDS011;39167;52.794;6.892;2023-03-11T07:05:43;3.47;;;1.25;;
53281;SDS011;39167;52.794;6.892;2023-03-11T07:08:09;2.75;;;1.02;;
53281;SDS011;39167;52.794;6.892;2023-03-11T07:10:34;8.30;;;1.60;;
53281;SDS011;39167;52.794;6.892;2023-03-11T07:13:00;2.97;;;0.95;;
53281;SDS011;39167;52.794;6.892;2023-03-11T07:15:26;6.20;;;1.58;;
53281;SDS011;39167;52.794;6.892;2023-03-11T07:17:52;4.70;;;1.15;;
53281;SDS011;39167;52.794;6.892;2023-03-11T07:20:18;3.78;;;1.30;;
53281;SDS011;39167;52.794;6.892;2023-03-11T07:22:44;8.85;;;1.50;;
53281;SDS011;39167;52.794;6.892;2023-03-11T07:25:09;4.82;;;2.08;;
53281;SDS011;39167;52.794;6.892;2023-03-11T07:27:35;6.60;;;1.48;;
53281;SDS011;39167;52.794;6.892;2023-03-11T07:30:01;2.03;;;1.17;;
53281;SDS011;39167;52.794;6.892;2023-03-11T07:32:27;5.47;;;1.63;;
53281;SDS011;39167;52.794;6.892;2023-03-11T07:34:53;7.07;;;1.80;;
53281;SDS011;39167;52.794;6.892;2023-03-11T07:37:19;6.63;;;2.05;;
53281;SDS011;39167;52.794;6.892;2023-03-11T07:39:44;3.80;;;1.70;;
53281;SDS011;39167;52.794;6.892;2023-03-11T07:42:10;3.97;;;1.40;;
53281;SDS011;39167;52.794;6.892;2023-03-11T07:44:36;7.68;;;2.00;;
53281;SDS011;39167;52.794;6.892;2023-03-11T07:47:02;8.48;;;2.40;;
53281;SDS011;39167;52.794;6.892;2023-03-11T07:49:29;5.25;;;2.30;;
53281;SDS011;39167;52.794;6.892;2023-03-11T07:51:54;7.25;;;2.13;;
53281;SDS011;39167;52.794;6.892;2023-03-11T07:54:20;4.72;;;2.13;;
53281;SDS011;39167;52.794;6.892;2023-03-11T07:56:46;5.20;;;1.85;;
53281;SDS011;39167;52.794;6.892;2023-03-11T07:59:12;5.82;;;1.95;;
53281;SDS011;39167;52.794;6.892;2023-03-11T08:01:38;5.40;;;2.33;;
53281;SDS011;39167;52.794;6.892;2023-03-11T08:04:05;6.20;;;2.78;;
53281;SDS011;39167;52.794;6.892;2023-03-11T08:06:33;10.63;;;3.85;;
53281;SDS011;39167;52.794;6.892;2023-03-11T08:09:02;11.73;;;2.40;;
53281;SDS011;39167;52.794;6.892;2023-03-11T08:11:30;6.00;;;2.28;;
53281;SDS011;39167;52.794;6.892;2023-03-11T08:13:56;9.30;;;2.40;;
53281;SDS011;39167;52.794;6.892;2023-03-11T08:16:22;7.07;;;2.55;;
53281;SDS011;39167;52.794;6.892;2023-03-11T08:18:50;11.73;;;3.47;;
53281;SDS011;39167;52.794;6.892;2023-03-11T08:21:18;8.27;;;2.05;;
53281;SDS011;39167;52.794;6.892;2023-03-11T08:23:46;9.88;;;3.20;;
53281;SDS011;39167;52.794;6.892;2023-03-11T08:26:13;8.02;;;2.60;;
53281;SDS011;39167;52.794;6.892;2023-03-11T08:28:41;4.97;;;1.65;;
53281;SDS011;39167;52.794;6.892;2023-03-11T08:31:14;4.15;;;1.90;;
53281;SDS011;39167;52.794;6.892;2023-03-11T08:33:40;7.80;;;2.28;;
53281;SDS011;39167;52.794;6.892;2023-03-11T08:36:06;5.78;;;1.67;;
53281;SDS011;39167;52.794;6.892;2023-03-11T08:38:32;6.53;;;2.08;;
53281;SDS011;39167;52.794;6.892;2023-03-11T08:40:57;4.57;;;2.20;;
53281;SDS011;39167;52.794;6.892;2023-03-11T08:43:24;6.65;;;2.10;;
53281;SDS011;39167;52.794;6.892;2023-03-11T08:45:50;5.55;;;1.85;;
53281;SDS011;39167;52.794;6.892;2023-03-11T08:48:16;7.90;;;1.95;;
53281;SDS011;39167;52.794;6.892;2023-03-11T08:50:42;9.10;;;2.00;;
53281;SDS011;39167;52.794;6.892;2023-03-11T08:53:08;5.45;;;2.03;;
53281;SDS011;39167;52.794;6.892;2023-03-11T08:55:34;6.95;;;2.63;;
53281;SDS011;39167;52.794;6.892;2023-03-11T08:58:00;7.85;;;2.45;;
53281;SDS011;39167;52.794;6.892;2023-03-11T09:00:26;5.50;;;2.10;;
53281;SDS011;39167;52.794;6.892;2023-03-11T09:02:52;6.22;;;1.90;;
53281;SDS011;39167;52.794;6.892;2023-03-11T09:05:17;8.10;;;1.90;;
53281;SDS011;39167;52.794;6.892;2023-03-11T09:07:43;7.82;;;2.13;;
53281;SDS011;39167;52.794;6.892;2023-03-11T09:10:13;6.80;;;2.20;;
53281;SDS011;39167;52.794;6.892;2023-03-11T09:12:42;4.85;;;1.75;;
53281;SDS011;39167;52.794;6.892;2023-03-11T09:15:08;8.45;;;2.10;;
53281;SDS011;39167;52.794;6.892;2023-03-11T09:17:35;9.55;;;2.28;;
53281;SDS011;39167;52.794;6.892;2023-03-11T09:20:01;6.25;;;1.88;;
53281;SDS011;39167;52.794;6.892;2023-03-11T09:22:27;6.70;;;1.63;;
53281;SDS011;39167;52.794;6.892;2023-03-11T09:24:53;9.07;;;2.38;;
53281;SDS011;39167;52.794;6.892;2023-03-11T09:27:19;4.45;;;2.28;;
53281;SDS011;39167;52.794;6.892;2023-03-11T09:29:44;6.55;;;2.10;;
53281;SDS011;39167;52.794;6.892;2023-03-11T09:32:13;4.22;;;2.03;;
53281;SDS011;39167;52.794;6.892;2023-03-11T09:34:40;6.30;;;2.10;;
53281;SDS011;39167;52.794;6.892;2023-03-11T09:37:05;4.32;;;1.65;;
53281;SDS011;39167;52.794;6.892;2023-03-11T09:39:32;3.00;;;1.55;;
53281;SDS011;39167;52.794;6.892;2023-03-11T09:42:01;5.75;;;2.17;;
53281;SDS011;39167;52.794;6.892;2023-03-11T09:44:41;6.57;;;1.65;;
53281;SDS011;39167;52.794;6.892;2023-03-11T09:47:33;5.05;;;1.85;;
53281;SDS011;39167;52.794;6.892;2023-03-11T09:50:21;5.22;;;1.92;;
53281;SDS011;39167;52.794;6.892;2023-03-11T09:58:00;5.85;;;1.73;;
53281;SDS011;39167;52.794;6.892;2023-03-11T10:00:28;4.57;;;1.73;;
53281;SDS011;39167;52.794;6.892;2023-03-11T10:03:11;4.50;;;1.70;;
53281;SDS011;39167;52.794;6.892;2023-03-11T10:05:43;9.23;;;2.10;;
53281;SDS011;39167;52.794;6.892;2023-03-11T10:10:51;5.32;;;1.92;;
53281;SDS011;39167;52.794;6.892;2023-03-11T10:13:32;10.32;;;2.17;;
53281;SDS011;39167;52.794;6.892;2023-03-11T10:16:23;2.55;;;1.27;;
53281;SDS011;39167;52.794;6.892;2023-03-11T10:19:29;5.88;;;1.42;;
53281;SDS011;39167;52.794;6.892;2023-03-11T10:25:07;4.95;;;1.38;;
53281;SDS011;39167;52.794;6.892;2023-03-11T10:30:46;11.45;;;1.65;;
53281;SDS011;39167;52.794;6.892;2023-03-11T10:33:34;4.65;;;2.13;;
53281;SDS011;39167;52.794;6.892;2023-03-11T10:36:23;7.97;;;2.15;;
53281;SDS011;39167;52.794;6.892;2023-03-11T10:38:55;7.97;;;2.35;;
53281;SDS011;39167;52.794;6.892;2023-03-11T10:41:29;8.15;;;2.15;;
53281;SDS011;39167;52.794;6.892;2023-03-11T10:44:08;8.75;;;2.08;;
53281;SDS011;39167;52.794;6.892;2023-03-11T10:46:39;8.85;;;1.77;;
53281;SDS011;39167;52.794;6.892;2023-03-11T10:49:14;6.75;;;1.65;;
53281;SDS011;39167;52.794;6.892;2023-03-11T10:51:44;8.73;;;1.98;;
53281;SDS011;39167;52.794;6.892;2023-03-11T10:57:01;7.68;;;1.80;;
53281;SDS011;39167;52.794;6.892;2023-03-11T10:59:31;5.22;;;2.20;;
53281;SDS011;39167;52.794;6.892;2023-03-11T11:02:07;8.50;;;1.80;;
53281;SDS011;39167;52.794;6.892;2023-03-11T11:04:45;4.22;;;1.38;;
53281;SDS011;39167;52.794;6.892;2023-03-11T11:12:51;4.15;;;1.40;;
53281;SDS011;39167;52.794;6.892;2023-03-11T11:18:14;6.05;;;1.55;;
53281;SDS011;39167;52.794;6.892;2023-03-11T11:20:52;4.03;;;1.20;;
53281;SDS011;39167;52.794;6.892;2023-03-11T11:23:26;2.33;;;1.08;;
53281;SDS011;39167;52.794;6.892;2023-03-11T11:26:14;4.95;;;1.63;;
53281;SDS011;39167;52.794;6.892;2023-03-11T11:28:45;4.63;;;1.35;;
53281;SDS011;39167;52.794;6.892;2023-03-11T11:31:28;7.35;;;2.08;;
53281;SDS011;39167;52.794;6.892;2023-03-11T11:33:54;3.92;;;1.30;;
53281;SDS011;39167;52.794;6.892;2023-03-11T11:36:22;4.60;;;1.27;;
53281;SDS011;39167;52.794;6.892;2023-03-11T11:38:53;5.40;;;1.00;;
53281;SDS011;39167;52.794;6.892;2023-03-11T11:41:20;5.30;;;1.17;;
53281;SDS011;39167;52.794;6.892;2023-03-11T11:43:54;3.50;;;1.10;;
53281;SDS011;39167;52.794;6.892;2023-03-11T11:46:26;2.75;;;1.10;;
53281;SDS011;39167;52.794;6.892;2023-03-11T11:51:51;10.40;;;1.33;;
53281;SDS011;39167;52.794;6.892;2023-03-11T11:54:28;5.82;;;0.95;;
53281;SDS011;39167;52.794;6.892;2023-03-11T11:57:11;6.57;;;1.02;;
53281;SDS011;39167;52.794;6.892;2023-03-11T11:59:39;5.80;;;1.20;;
53281;SDS011;39167;52.794;6.892;2023-03-11T12:02:12;4.15;;;0.90;;
53281;SDS011;39167;52.794;6.892;2023-03-11T12:05:16;6.27;;;1.00;;
53281;SDS011;39167;52.794;6.892;2023-03-11T12:10:27;4.38;;;1.02;;
53281;SDS011;39167;52.794;6.892;2023-03-11T12:15:38;5.47;;;1.40;;
53281;SDS011;39167;52.794;6.892;2023-03-11T12:18:12;5.82;;;1.10;;
53281;SDS011;39167;52.794;6.892;2023-03-11T12:20:52;2.92;;;0.95;;
53281;SDS011;39167;52.794;6.892;2023-03-11T12:23:23;3.13;;;0.95;;
53281;SDS011;39167;52.794;6.892;2023-03-11T12:30:57;3.50;;;0.80;;
53281;SDS011;39167;52.794;6.892;2023-03-11T12:36:16;4.82;;;0.85;;
53281;SDS011;39167;52.794;6.892;2023-03-11T12:39:05;4.75;;;0.73;;
53281;SDS011;39167;52.794;6.892;2023-03-11T12:41:43;6.38;;;0.98;;
53281;SDS011;39167;52.794;6.892;2023-03-11T12:44:25;4.03;;;0.82;;
53281;SDS011;39167;52.794;6.892;2023-03-11T12:49:26;5.10;;;0.90;;
53281;SDS011;39167;52.794;6.892;2023-03-11T12:54:40;4.93;;;1.05;;
53281;SDS011;39167;52.794;6.892;2023-03-11T13:08:13;5.25;;;1.23;;
53281;SDS011;39167;52.794;6.892;2023-03-11T13:10:51;4.55;;;0.95;;
53281;SDS011;39167;52.794;6.892;2023-03-11T13:13:37;5.30;;;0.75;;
53281;SDS011;39167;52.794;6.892;2023-03-11T13:18:40;3.60;;;1.23;;
53281;SDS011;39167;52.794;6.892;2023-03-11T13:23:52;5.28;;;0.88;;
53281;SDS011;39167;52.794;6.892;2023-03-11T13:32:11;6.50;;;0.60;;
53281;SDS011;39167;52.794;6.892;2023-03-11T13:42:42;3.28;;;0.70;;
53281;SDS011;39167;52.794;6.892;2023-03-11T13:45:19;4.10;;;0.70;;
53281;SDS011;39167;52.794;6.892;2023-03-11T13:48:13;5.45;;;0.70;;
53281;SDS011;39167;52.794;6.892;2023-03-11T13:50:46;6.32;;;0.68;;
53281;SDS011;39167;52.794;6.892;2023-03-11T13:56:01;2.88;;;0.60;;
53281;SDS011;39167;52.794;6.892;2023-03-11T13:58:28;2.83;;;0.45;;
53281;SDS011;39167;52.794;6.892;2023-03-11T14:00:57;4.20;;;0.77;;
53281;SDS011;39167;52.794;6.892;2023-03-11T14:03:26;3.65;;;0.75;;
53281;SDS011;39167;52.794;6.892;2023-03-11T14:05:57;3.30;;;0.80;;
53281;SDS011;39167;52.794;6.892;2023-03-11T14:08:28;3.60;;;0.70;;
53281;SDS011;39167;52.794;6.892;2023-03-11T14:10:57;2.83;;;0.60;;
53281;SDS011;39167;52.794;6.892;2023-03-11T14:13:24;1.70;;;0.63;;
53281;SDS011;39167;52.794;6.892;2023-03-11T14:19:39;1.80;;;0.40;;
53281;SDS011;39167;52.794;6.892;2023-03-11T14:24:18;1.98;;;0.93;;
53281;SDS011;39167;52.794;6.892;2023-03-11T14:26:47;2.28;;;0.73;;
53281;SDS011;39167;52.794;6.892;2023-03-11T14:29:15;5.88;;;1.02;;
53281;SDS011;39167;52.794;6.892;2023-03-11T14:31:43;1.20;;;0.50;;
53281;SDS011;39167;52.794;6.892;2023-03-11T14:34:17;2.35;;;0.90;;
53281;SDS011;39167;52.794;6.892;2023-03-11T14:36:49;3.65;;;0.70;;
53281;SDS011;39167;52.794;6.892;2023-03-11T14:41:58;3.55;;;0.70;;
53281;SDS011;39167;52.794;6.892;2023-03-11T14:44:30;3.80;;;1.00;;
53281;SDS011;39167;52.794;6.892;2023-03-11T14:47:10;1.27;;;0.40;;
53281;SDS011;39167;52.794;6.892;2023-03-11T14:49:43;3.97;;;0.82;;
53281;SDS011;39167;52.794;6.892;2023-03-11T14:52:15;3.65;;;0.70;;
53281;SDS011;39167;52.794;6.892;2023-03-11T14:54:45;2.63;;;0.50;;
53281;SDS011;39167;52.794;6.892;2023-03-11T14:57:56;2.88;;;0.55;;
53281;SDS011;39167;52.794;6.892;2023-03-11T15:00:19;2.92;;;0.80;;
53281;SDS011;39167;52.794;6.892;2023-03-11T15:08:19;1.80;;;0.55;;
53281;SDS011;39167;52.794;6.892;2023-03-11T15:13:33;1.75;;;0.40;;
53281;SDS011;39167;52.794;6.892;2023-03-11T15:16:00;4.03;;;1.00;;
53281;SDS011;39167;52.794;6.892;2023-03-11T15:18:28;2.13;;;0.73;;
53281;SDS011;39167;52.794;6.892;2023-03-11T15:21:00;2.28;;;0.57;;
53281;SDS011;39167;52.794;6.892;2023-03-11T15:23:32;4.20;;;0.57;;
53281;SDS011;39167;52.794;6.892;2023-03-11T15:26:00;2.47;;;0.57;;
53281;SDS011;39167;52.794;6.892;2023-03-11T15:28:26;4.13;;;0.82;;
53281;SDS011;39167;52.794;6.892;2023-03-11T15:33:55;5.10;;;1.45;;
53281;SDS011;39167;52.794;6.892;2023-03-11T15:36:38;6.32;;;0.82;;
53281;SDS011;39167;52.794;6.892;2023-03-11T15:39:12;2.78;;;0.90;;
53281;SDS011;39167;52.794;6.892;2023-03-11T15:41:39;2.88;;;0.90;;
53281;SDS011;39167;52.794;6.892;2023-03-11T15:44:16;3.92;;;1.55;;
53281;SDS011;39167;52.794;6.892;2023-03-11T15:46:48;4.15;;;1.15;;
53281;SDS011;39167;52.794;6.892;2023-03-11T15:49:14;6.65;;;1.00;;
53281;SDS011;39167;52.794;6.892;2023-03-11T15:51:40;5.68;;;1.10;;
53281;SDS011;39167;52.794;6.892;2023-03-11T15:54:06;3.47;;;1.10;;
53281;SDS011;39167;52.794;6.892;2023-03-11T15:56:31;5.07;;;1.10;;
53281;SDS011;39167;52.794;6.892;2023-03-11T15:58:57;8.13;;;2.40;;
53281;SDS011;39167;52.794;6.892;2023-03-11T16:01:24;6.60;;;1.60;;
53281;SDS011;39167;52.794;6.892;2023-03-11T16:03:53;7.68;;;2.90;;
53281;SDS011;39167;52.794;6.892;2023-03-11T16:06:19;7.93;;;2.70;;
53281;SDS011;39167;52.794;6.892;2023-03-11T16:08:47;12.63;;;5.45;;
53281;SDS011;39167;52.794;6.892;2023-03-11T16:11:13;12.75;;;3.58;;
53281;SDS011;39167;52.794;6.892;2023-03-11T16:13:39;8.63;;;3.97;;
53281;SDS011;39167;52.794;6.892;2023-03-11T16:16:07;7.57;;;2.50;;
53281;SDS011;39167;52.794;6.892;2023-03-11T16:18:41;4.95;;;2.03;;
53281;SDS011;39167;52.794;6.892;2023-03-11T16:21:08;8.85;;;2.15;;
53281;SDS011;39167;52.794;6.892;2023-03-11T16:23:41;6.35;;;2.45;;
53281;SDS011;39167;52.794;6.892;2023-03-11T16:26:08;6.15;;;2.13;;
53281;SDS011;39167;52.794;6.892;2023-03-11T16:28:35;14.75;;;8.13;;
53281;SDS011;39167;52.794;6.892;2023-03-11T16:31:01;10.60;;;6.05;;
53281;SDS011;39167;52.794;6.892;2023-03-11T16:33:27;12.50;;;4.07;;
53281;SDS011;39167;52.794;6.892;2023-03-11T16:35:53;11.32;;;3.38;;
53281;SDS011;39167;52.794;6.892;2023-03-11T16:38:18;7.72;;;3.03;;
53281;SDS011;39167;52.794;6.892;2023-03-11T16:40:56;7.25;;;2.10;;
53281;SDS011;39167;52.794;6.892;2023-03-11T16:43:24;6.93;;;2.05;;
53281;SDS011;39167;52.794;6.892;2023-03-11T16:45:50;4.05;;;1.20;;